Time;durP1;ratioP1;P1;durP2;ratioP2;P2;SDS_P1;SDS_P2;PMS_P1;PMS_P2;Temp;Humidity;BMP_temperature;BMP_pressure;BME280_temperature;BME280_humidity;BME280_pressure;Samples;Min_cycle;Max_cycle;Signal;HPM_P1;HPM_P2
2023/05/28 00:01:18;;;;;;;8.17;4.83;;;10.40;35.40;;;;;;5065546;28;46782;-65
2023/05/28 00:03:43;;;;;;;11.20;5.43;;;10.40;35.40;;;;;;5068902;28;46650;-65
2023/05/28 00:06:09;;;;;;;11.50;5.97;;;10.40;35.60;;;;;;5067649;27;47324;-66
2023/05/28 00:08:35;;;;;;;15.03;5.73;;;10.40;35.70;;;;;;5072789;28;46357;-65
2023/05/28 00:11:00;;;;;;;11.23;5.03;;;10.30;35.80;;;;;;5068843;28;46485;-65
2023/05/28 00:13:29;;;;;;;12.53;4.90;;;10.30;35.90;;;;;;5064649;27;46241;-66
2023/05/28 00:15:55;;;;;;;15.97;4.93;;;10.30;36.10;;;;;;5067364;28;46420;-65
2023/05/28 00:18:21;;;;;;;10.93;4.90;;;10.30;36.10;;;;;;5066272;28;46485;-66
2023/05/28 00:20:50;;;;;;;9.40;5.77;;;10.30;36.20;;;;;;5064688;27;46470;-66
2023/05/28 00:23:16;;;;;;;14.97;6.47;;;10.30;36.30;;;;;;5066718;28;45869;-65
2023/05/28 00:25:42;;;;;;;12.27;6.90;;;10.30;36.30;;;;;;5064005;28;46349;-65
2023/05/28 00:28:07;;;;;;;13.10;6.83;;;10.30;36.50;;;;;;5064217;27;46384;-65
2023/05/28 00:30:33;;;;;;;16.63;6.70;;;10.30;36.50;;;;;;5066200;28;46472;-65
2023/05/28 00:32:59;;;;;;;9.60;5.87;;;10.20;36.50;;;;;;5066079;28;46368;-65
2023/05/28 00:35:25;;;;;;;15.10;5.80;;;10.30;36.80;;;;;;5068418;28;46589;-65
2023/05/28 00:37:52;;;;;;;10.43;5.40;;;10.20;36.80;;;;;;5063532;28;46335;-65
2023/05/28 00:40:18;;;;;;;11.60;5.77;;;10.20;36.90;;;;;;5066188;28;45815;-65
2023/05/28 00:42:44;;;;;;;13.27;5.80;;;10.20;37.00;;;;;;5069706;27;46492;-64
2023/05/28 00:45:11;;;;;;;12.60;5.40;;;10.10;37.10;;;;;;5067675;28;46607;-64
2023/05/28 00:47:40;;;;;;;12.90;5.30;;;10.10;37.10;;;;;;5067182;28;46279;-64
2023/05/28 00:50:08;;;;;;;16.27;5.77;;;10.10;37.20;;;;;;5069300;28;46380;-65
2023/05/28 00:52:35;;;;;;;12.83;5.87;;;10.10;37.20;;;;;;5065150;28;46684;-65
2023/05/28 00:55:01;;;;;;;10.60;5.00;;;10.00;37.30;;;;;;5062341;28;47385;-65
2023/05/28 00:57:26;;;;;;;8.53;4.93;;;10.00;37.50;;;;;;5069063;28;46371;-65
2023/05/28 00:59:55;;;;;;;12.43;5.50;;;9.90;38.50;;;;;;5065664;28;46550;-65
2023/05/28 01:02:20;;;;;;;14.47;4.90;;;9.90;38.80;;;;;;5067119;28;46476;-65
2023/05/28 01:04:46;;;;;;;11.70;5.47;;;9.80;38.80;;;;;;5064050;28;46511;-65
2023/05/28 01:07:12;;;;;;;9.50;4.90;;;9.80;38.90;;;;;;5066810;27;46433;-65
2023/05/28 01:09:37;;;;;;;11.50;6.10;;;9.70;39.10;;;;;;5067931;27;46515;-66
2023/05/28 01:12:05;;;;;;;11.73;5.43;;;9.60;39.00;;;;;;5066667;27;46666;-65
2023/05/28 01:14:31;;;;;;;10.97;5.90;;;9.60;39.00;;;;;;5069077;28;48020;-66
2023/05/28 01:16:58;;;;;;;11.63;5.53;;;9.50;38.90;;;;;;5071557;28;46355;-66
2023/05/28 01:19:26;;;;;;;17.83;6.00;;;9.50;39.00;;;;;;5068246;28;46456;-65
2023/05/28 01:21:57;;;;;;;14.23;6.10;;;9.50;39.20;;;;;;5068299;27;46563;-66
2023/05/28 01:24:24;;;;;;;9.50;5.20;;;9.40;39.50;;;;;;5069542;28;46418;-65
2023/05/28 01:26:50;;;;;;;13.70;6.23;;;9.30;39.80;;;;;;5070063;28;46444;-65
2023/05/28 01:29:17;;;;;;;14.93;6.33;;;9.30;39.90;;;;;;5069632;28;46501;-66
2023/05/28 01:31:43;;;;;;;13.30;5.50;;;9.30;39.70;;;;;;5068079;28;46820;-65
2023/05/28 01:34:10;;;;;;;10.13;5.30;;;9.30;39.70;;;;;;5069838;28;46363;-65
2023/05/28 01:36:43;;;;;;;10.20;4.80;;;9.30;39.50;;;;;;5067974;28;46396;-66
2023/05/28 01:39:12;;;;;;;14.27;5.80;;;9.30;39.60;;;;;;5068813;28;46350;-65
2023/05/28 01:41:38;;;;;;;9.90;5.17;;;9.30;39.40;;;;;;5068481;28;46592;-65
2023/05/28 01:44:06;;;;;;;13.13;4.77;;;9.30;39.20;;;;;;5068460;28;47321;-66
2023/05/28 01:46:32;;;;;;;8.77;5.27;;;9.40;39.10;;;;;;5067337;28;46454;-66
2023/05/28 01:48:58;;;;;;;17.03;7.10;;;9.40;38.90;;;;;;5066398;28;46799;-66
2023/05/28 01:51:24;;;;;;;15.87;5.67;;;9.40;38.90;;;;;;5068316;28;46419;-66
2023/05/28 01:53:51;;;;;;;15.53;6.60;;;9.40;38.80;;;;;;5070650;27;47290;-65
2023/05/28 01:56:17;;;;;;;13.10;5.80;;;9.50;38.90;;;;;;5066486;27;46256;-66
2023/05/28 01:58:43;;;;;;;13.97;6.77;;;9.50;39.00;;;;;;5063439;28;46435;-65
2023/05/28 02:01:27;;;;;;;16.67;7.07;;;9.50;39.00;;;;;;5069987;28;46578;-65
2023/05/28 02:03:53;;;;;;;13.53;6.77;;;9.50;39.20;;;;;;5068135;28;47153;-65
2023/05/28 02:06:19;;;;;;;15.27;6.80;;;9.50;39.20;;;;;;5063910;28;46783;-65
2023/05/28 02:08:45;;;;;;;15.20;6.80;;;9.50;39.60;;;;;;5070240;28;46369;-65
2023/05/28 02:11:10;;;;;;;16.23;6.73;;;9.50;40.00;;;;;;5068286;28;46672;-64
2023/05/28 02:13:36;;;;;;;15.77;6.57;;;9.50;40.00;;;;;;5071484;28;46380;-66
2023/05/28 02:16:01;;;;;;;13.30;6.80;;;9.50;40.20;;;;;;5068510;28;46549;-66
2023/05/28 02:18:27;;;;;;;15.60;6.47;;;9.50;40.50;;;;;;5070019;28;46385;-65
2023/05/28 02:20:53;;;;;;;16.37;6.47;;;9.40;40.40;;;;;;5070227;28;46431;-65
2023/05/28 02:23:18;;;;;;;13.93;6.33;;;9.40;40.40;;;;;;5068332;28;47171;-66
2023/05/28 02:25:44;;;;;;;12.50;6.07;;;9.40;40.50;;;;;;5064267;28;46459;-66
2023/05/28 02:28:10;;;;;;;13.67;6.00;;;9.40;40.40;;;;;;5071491;28;45811;-65
2023/05/28 02:30:36;;;;;;;15.30;6.30;;;9.40;40.30;;;;;;5067241;27;46559;-66
2023/05/28 02:33:01;;;;;;;11.80;5.87;;;9.50;40.30;;;;;;5065548;28;46325;-65
2023/05/28 02:35:27;;;;;;;17.77;6.30;;;9.50;40.30;;;;;;5067356;28;46375;-66
2023/05/28 02:37:52;;;;;;;12.63;6.83;;;9.40;40.20;;;;;;5065649;28;46496;-66
2023/05/28 02:40:18;;;;;;;14.20;6.20;;;9.40;40.30;;;;;;5069004;28;46583;-65
2023/05/28 02:42:44;;;;;;;15.13;6.40;;;9.30;40.50;;;;;;5063493;28;46393;-66
2023/05/28 02:45:10;;;;;;;12.80;5.37;;;9.20;40.70;;;;;;5069199;28;45936;-66
2023/05/28 02:47:35;;;;;;;14.50;5.67;;;9.10;40.80;;;;;;5069578;28;46354;-66
2023/05/28 02:50:01;;;;;;;11.80;5.63;;;9.10;42.20;;;;;;5067186;28;46709;-65
2023/05/28 02:52:27;;;;;;;10.67;6.03;;;9.10;41.00;;;;;;5070306;28;46178;-66
2023/05/28 02:54:52;;;;;;;10.80;5.30;;;9.00;41.10;;;;;;5066198;28;46374;-65
2023/05/28 02:57:18;;;;;;;17.50;6.00;;;9.00;41.10;;;;;;5063725;28;46530;-65
2023/05/28 02:59:44;;;;;;;12.57;5.80;;;9.10;41.10;;;;;;5069248;27;46518;-65
2023/05/28 03:02:09;;;;;;;13.00;5.60;;;9.00;41.10;;;;;;5068678;28;46592;-66
2023/05/28 03:04:35;;;;;;;10.43;5.53;;;9.00;41.30;;;;;;5063588;28;47015;-65
2023/05/28 03:07:02;;;;;;;13.03;6.17;;;9.00;41.20;;;;;;5067289;28;46424;-65
2023/05/28 03:09:27;;;;;;;14.10;6.90;;;9.00;41.20;;;;;;5065301;28;46511;-65
2023/05/28 03:11:53;;;;;;;14.50;5.63;;;9.00;41.20;;;;;;5066865;28;47184;-65
2023/05/28 03:14:18;;;;;;;13.60;5.90;;;9.00;41.20;;;;;;5069281;28;46220;-65
2023/05/28 03:16:44;;;;;;;9.83;5.73;;;9.00;41.30;;;;;;5062605;28;46379;-64
2023/05/28 03:19:10;;;;;;;16.03;6.00;;;9.00;41.30;;;;;;5069484;28;46562;-64
2023/05/28 03:21:36;;;;;;;11.33;5.60;;;9.10;41.20;;;;;;5070325;28;47078;-64
2023/05/28 03:24:03;;;;;;;13.20;5.90;;;9.10;41.20;;;;;;5067188;28;46408;-64
2023/05/28 03:26:29;;;;;;;15.27;6.13;;;9.10;41.10;;;;;;5067268;28;45849;-64
2023/05/28 03:28:56;;;;;;;15.57;6.80;;;9.10;41.10;;;;;;5071658;28;45898;-65
2023/05/28 03:31:29;;;;;;;13.97;5.90;;;9.10;41.20;;;;;;5067972;28;46382;-64
2023/05/28 03:33:55;;;;;;;15.27;6.37;;;9.20;41.10;;;;;;5063181;28;46302;-65
2023/05/28 03:36:22;;;;;;;12.00;5.50;;;9.20;41.00;;;;;;5066521;28;46413;-65
2023/05/28 03:38:47;;;;;;;9.60;5.30;;;9.30;40.90;;;;;;5067830;27;45989;-65
2023/05/28 03:41:13;;;;;;;13.57;5.97;;;9.30;40.90;;;;;;5067241;28;46291;-65
2023/05/28 03:43:38;;;;;;;9.87;5.07;;;9.30;40.90;;;;;;5067552;28;46310;-64
2023/05/28 03:46:04;;;;;;;11.17;4.70;;;9.30;41.00;;;;;;5067248;28;46607;-64
2023/05/28 03:48:30;;;;;;;7.47;5.00;;;9.30;41.00;;;;;;5069674;28;46445;-64
2023/05/28 03:50:56;;;;;;;8.67;4.70;;;9.30;41.00;;;;;;5068894;28;46443;-64
2023/05/28 03:53:22;;;;;;;14.87;5.17;;;9.30;41.00;;;;;;5066489;28;46443;-64
2023/05/28 03:55:48;;;;;;;9.90;4.83;;;9.40;40.90;;;;;;5068053;28;46481;-64
2023/05/28 03:58:15;;;;;;;10.40;4.80;;;9.40;40.90;;;;;;5067263;27;46580;-64
2023/05/28 04:00:41;;;;;;;11.60;4.60;;;9.50;40.80;;;;;;5066625;28;47068;-65
2023/05/28 04:03:07;;;;;;;9.37;4.90;;;9.60;40.80;;;;;;5066916;28;46462;-64
2023/05/28 04:05:33;;;;;;;7.43;4.50;;;9.70;40.50;;;;;;5067832;28;46424;-65
2023/05/28 04:07:59;;;;;;;11.50;5.07;;;9.70;40.40;;;;;;5066399;28;46321;-64
2023/05/28 04:10:25;;;;;;;11.10;5.53;;;9.80;40.30;;;;;;5066776;28;46376;-64
2023/05/28 04:12:52;;;;;;;12.30;4.77;;;9.80;40.20;;;;;;5067892;28;46512;-64
2023/05/28 04:15:18;;;;;;;11.83;4.93;;;9.80;40.40;;;;;;5066554;27;46754;-64
2023/05/28 04:17:44;;;;;;;13.60;4.80;;;9.90;40.40;;;;;;5061400;27;46520;-65
2023/05/28 04:20:10;;;;;;;7.40;4.80;;;10.00;39.30;;;;;;5065626;28;46372;-65
2023/05/28 04:22:36;;;;;;;8.03;4.33;;;10.10;39.20;;;;;;5067042;28;46428;-65
2023/05/28 04:25:02;;;;;;;10.27;5.70;;;10.20;38.60;;;;;;5069764;27;46404;-65
2023/05/28 04:27:27;;;;;;;13.40;6.83;;;10.40;38.80;;;;;;5063366;28;46372;-66
2023/05/28 04:29:54;;;;;;;11.50;4.87;;;10.60;38.90;;;;;;5067562;28;46449;-66
2023/05/28 04:32:22;;;;;;;14.83;5.80;;;10.70;38.80;;;;;;5068897;28;46408;-66
2023/05/28 04:34:48;;;;;;;13.33;5.37;;;10.90;38.10;;;;;;5066367;28;45846;-65
2023/05/28 04:37:13;;;;;;;10.63;5.50;;;11.10;37.60;;;;;;5064897;28;46464;-65
2023/05/28 04:39:39;;;;;;;13.17;6.40;;;11.40;37.10;;;;;;5068650;27;46492;-64
2023/05/28 04:42:07;;;;;;;21.90;8.43;;;11.60;36.50;;;;;;5067904;27;46367;-65
2023/05/28 04:44:33;;;;;;;21.37;9.63;;;12.10;35.60;;;;;;5065888;28;46425;-64
2023/05/28 04:46:59;;;;;;;15.87;6.57;;;13.40;34.30;;;;;;5063337;27;46294;-65
2023/05/28 04:49:25;;;;;;;16.37;7.57;;;14.80;32.50;;;;;;5067189;28;47093;-64
2023/05/28 04:51:52;;;;;;;11.10;6.57;;;15.90;30.20;;;;;;5065376;28;46354;-65
2023/05/28 04:54:17;;;;;;;12.27;5.23;;;16.90;28.70;;;;;;5059733;28;46329;-64
2023/05/28 04:56:43;;;;;;;11.10;6.10;;;17.80;27.70;;;;;;5066513;28;46606;-65
2023/05/28 04:59:09;;;;;;;10.80;5.20;;;18.70;25.60;;;;;;5067895;28;46396;-65
2023/05/28 05:01:36;;;;;;;9.03;4.97;;;19.30;25.50;;;;;;5068468;28;46397;-65
2023/05/28 05:04:02;;;;;;;12.37;5.20;;;19.80;23.30;;;;;;5064235;27;46365;-65
2023/05/28 05:06:27;;;;;;;12.07;5.10;;;20.40;22.70;;;;;;5062958;28;46613;-65
2023/05/28 05:08:53;;;;;;;11.70;5.23;;;21.00;21.00;;;;;;5066780;28;46926;-65
2023/05/28 05:11:20;;;;;;;14.87;5.40;;;21.50;19.90;;;;;;5066867;27;46360;-64
2023/05/28 05:13:45;;;;;;;16.30;5.10;;;21.70;18.60;;;;;;5066661;28;46687;-63
2023/05/28 05:16:12;;;;;;;13.73;5.60;;;21.90;17.00;;;;;;5067385;28;46546;-64
2023/05/28 05:18:37;;;;;;;12.77;5.13;;;22.10;16.10;;;;;;5065381;28;47057;-64
2023/05/28 05:21:03;;;;;;;15.03;5.70;;;22.30;15.70;;;;;;5067476;28;46405;-66
2023/05/28 05:23:29;;;;;;;15.47;6.13;;;22.40;15.60;;;;;;5062907;27;46530;-66
2023/05/28 05:25:54;;;;;;;14.07;5.40;;;22.30;15.40;;;;;;5062417;28;46390;-64
2023/05/28 05:28:20;;;;;;;15.77;5.03;;;21.90;14.70;;;;;;5064423;28;46135;-64
2023/05/28 05:30:46;;;;;;;12.60;5.10;;;22.20;13.60;;;;;;5061811;27;46623;-64
2023/05/28 05:33:11;;;;;;;12.77;5.10;;;22.50;12.80;;;;;;5066053;28;46319;-65
2023/05/28 05:35:37;;;;;;;12.27;5.50;;;22.90;11.70;;;;;;5066270;28;46369;-65
2023/05/28 05:38:02;;;;;;;11.43;5.60;;;23.00;11.40;;;;;;5061752;28;46378;-64
2023/05/28 05:40:28;;;;;;;17.33;6.00;;;23.30;9.90;;;;;;5067019;28;46495;-65
2023/05/28 05:42:53;;;;;;;14.03;5.93;;;23.30;8.10;;;;;;5066120;28;46426;-65
2023/05/28 05:45:19;;;;;;;15.13;5.17;;;23.50;8.90;;;;;;5066662;28;46562;-65
2023/05/28 05:47:45;;;;;;;17.60;5.93;;;23.40;8.70;;;;;;5065099;28;46850;-65
2023/05/28 05:50:12;;;;;;;14.97;6.27;;;23.40;8.10;;;;;;5062923;28;46400;-66
2023/05/28 05:52:38;;;;;;;11.03;5.93;;;23.50;7.50;;;;;;5065427;27;46603;-65
2023/05/28 05:55:05;;;;;;;12.27;5.13;;;22.80;8.90;;;;;;5063541;28;46510;-66
2023/05/28 05:57:32;;;;;;;14.83;5.63;;;22.60;9.30;;;;;;5069314;27;46456;-65
2023/05/28 05:59:57;;;;;;;14.93;5.77;;;21.80;10.70;;;;;;5064453;28;46227;-66
2023/05/28 06:02:23;;;;;;;10.97;5.07;;;20.60;13.40;;;;;;5069779;28;46373;-64
2023/05/28 06:04:49;;;;;;;15.70;5.87;;;19.70;15.40;;;;;;5070708;28;46427;-65
2023/05/28 06:07:14;;;;;;;9.90;5.13;;;19.10;16.90;;;;;;5067612;28;46930;-64
2023/05/28 06:09:40;;;;;;;10.50;5.00;;;18.80;17.90;;;;;;5066142;28;46471;-65
2023/05/28 06:12:06;;;;;;;11.30;5.40;;;18.80;17.90;;;;;;5069534;28;45837;-64
2023/05/28 06:14:32;;;;;;;14.00;5.47;;;18.50;18.60;;;;;;5071851;28;46451;-65
2023/05/28 06:16:58;;;;;;;14.53;5.73;;;18.60;18.20;;;;;;5068010;28;46478;-64
2023/05/28 06:19:23;;;;;;;18.43;5.37;;;18.40;18.30;;;;;;5070384;28;46364;-65
2023/05/28 06:21:49;;;;;;;14.77;4.80;;;18.00;18.50;;;;;;5064292;27;46413;-64
2023/05/28 06:24:14;;;;;;;17.40;6.17;;;18.00;18.50;;;;;;5068953;28;46333;-64
2023/05/28 06:26:40;;;;;;;17.13;5.60;;;18.10;17.40;;;;;;5070557;28;46512;-64
2023/05/28 06:29:07;;;;;;;13.60;6.20;;;18.10;16.40;;;;;;5069313;28;46326;-64
2023/05/28 06:31:33;;;;;;;16.57;5.97;;;18.10;16.50;;;;;;5068430;28;45914;-65
2023/05/28 06:33:59;;;;;;;14.03;6.30;;;18.20;16.20;;;;;;5069443;28;46346;-64
2023/05/28 06:36:24;;;;;;;16.70;5.93;;;17.90;16.40;;;;;;5064516;28;46760;-64
2023/05/28 06:38:50;;;;;;;17.37;6.20;;;18.00;16.40;;;;;;5067733;28;46436;-64
2023/05/28 06:41:15;;;;;;;22.60;5.80;;;18.10;16.50;;;;;;5070220;28;46396;-64
2023/05/28 06:43:41;;;;;;;13.20;5.63;;;18.00;16.50;;;;;;5067217;27;46234;-63
2023/05/28 06:46:07;;;;;;;15.80;5.87;;;17.70;16.80;;;;;;5067252;28;46466;-64
2023/05/28 06:48:32;;;;;;;14.97;6.30;;;17.50;17.00;;;;;;5069543;28;46432;-64
2023/05/28 06:50:59;;;;;;;15.43;5.57;;;17.60;17.00;;;;;;5070899;28;46414;-65
2023/05/28 06:53:24;;;;;;;15.80;6.60;;;17.70;17.10;;;;;;5068572;28;46472;-65
2023/05/28 06:55:50;;;;;;;20.40;6.93;;;18.10;16.90;;;;;;5062933;28;46245;-64
2023/05/28 06:58:16;;;;;;;18.40;6.27;;;18.00;17.00;;;;;;5071271;28;46323;-65
2023/05/28 07:00:41;;;;;;;12.53;5.40;;;18.10;16.70;;;;;;5066037;28;46375;-64
2023/05/28 07:03:08;;;;;;;13.83;5.53;;;18.30;16.60;;;;;;5065763;28;46537;-64
2023/05/28 07:05:35;;;;;;;22.27;6.70;;;18.30;16.70;;;;;;5065800;28;47304;-64
2023/05/28 07:08:01;;;;;;;16.60;5.73;;;18.50;16.60;;;;;;5068823;27;46670;-65
2023/05/28 07:10:27;;;;;;;14.33;6.33;;;18.50;16.60;;;;;;5064761;28;46611;-64
2023/05/28 07:12:53;;;;;;;23.00;5.97;;;18.50;16.50;;;;;;5065061;28;46977;-65
2023/05/28 07:15:18;;;;;;;16.57;6.20;;;18.40;16.70;;;;;;5068403;28;46166;-64
2023/05/28 07:17:44;;;;;;;13.07;5.60;;;18.40;16.70;;;;;;5070213;28;45961;-65
2023/05/28 07:20:11;;;;;;;17.63;5.90;;;18.70;16.50;;;;;;5067350;27;46377;-64
2023/05/28 07:22:36;;;;;;;19.57;6.03;;;18.80;16.30;;;;;;5067888;28;46620;-65
2023/05/28 07:25:02;;;;;;;20.10;7.07;;;18.70;16.90;;;;;;5068487;28;46479;-64
2023/05/28 07:27:28;;;;;;;12.73;6.07;;;18.80;17.10;;;;;;5067725;28;46418;-64
2023/05/28 07:29:55;;;;;;;14.33;5.50;;;18.60;16.90;;;;;;5063187;28;46766;-64
2023/05/28 07:32:21;;;;;;;20.90;5.60;;;18.50;16.90;;;;;;5069673;28;46582;-65
2023/05/28 07:34:46;;;;;;;13.37;5.67;;;18.40;17.00;;;;;;5068669;28;46437;-64
2023/05/28 07:37:12;;;;;;;16.20;5.73;;;18.60;16.80;;;;;;5062256;28;46518;-64
2023/05/28 07:39:38;;;;;;;20.50;5.60;;;18.70;17.20;;;;;;5063392;27;46709;-64
2023/05/28 07:42:04;;;;;;;12.13;5.10;;;18.90;16.00;;;;;;5067826;28;46424;-65
2023/05/28 07:44:29;;;;;;;11.30;5.00;;;18.90;15.90;;;;;;5067955;28;46946;-65
2023/05/28 07:46:55;;;;;;;18.17;6.07;;;19.20;15.60;;;;;;5067288;28;46220;-64
2023/05/28 07:49:21;;;;;;;14.03;5.30;;;19.30;15.10;;;;;;5065190;28;46617;-65
2023/05/28 07:51:46;;;;;;;16.00;5.57;;;19.50;14.70;;;;;;5066867;28;46348;-65
2023/05/28 07:54:12;;;;;;;16.20;5.27;;;19.60;14.50;;;;;;5062433;28;46358;-65
2023/05/28 07:56:38;;;;;;;11.97;5.17;;;19.90;14.30;;;;;;5063041;28;46374;-66
2023/05/28 07:59:04;;;;;;;21.13;5.00;;;19.90;14.10;;;;;;5062546;28;46436;-65
2023/05/28 08:01:30;;;;;;;15.80;5.13;;;20.20;13.70;;;;;;5065964;28;46665;-65
2023/05/28 08:03:56;;;;;;;11.03;4.90;;;20.30;13.40;;;;;;5069531;28;46513;-65
2023/05/28 08:06:21;;;;;;;12.97;4.93;;;20.40;12.60;;;;;;5066192;28;46365;-63
2023/05/28 08:08:47;;;;;;;23.20;4.90;;;20.30;12.40;;;;;;5066796;28;46447;-63
2023/05/28 08:11:14;;;;;;;14.93;4.90;;;20.30;11.80;;;;;;5067904;28;46478;-64
2023/05/28 08:13:40;;;;;;;13.80;5.50;;;20.30;11.60;;;;;;5065412;28;48180;-64
2023/05/28 08:16:06;;;;;;;10.53;4.37;;;20.40;11.00;;;;;;5068051;28;46323;-64
2023/05/28 08:18:32;;;;;;;14.63;4.80;;;20.50;10.90;;;;;;5067567;27;46707;-63
2023/05/28 08:20:57;;;;;;;14.97;5.00;;;20.70;10.90;;;;;;5067855;28;46579;-63
2023/05/28 08:23:23;;;;;;;15.03;5.40;;;20.60;11.70;;;;;;5068796;28;47255;-64
2023/05/28 08:25:49;;;;;;;14.43;5.10;;;20.60;11.80;;;;;;5065323;28;46401;-64
2023/05/28 08:28:17;;;;;;;12.60;5.10;;;20.60;11.80;;;;;;5070200;28;46357;-64
2023/05/28 08:30:42;;;;;;;14.97;5.17;;;20.60;11.80;;;;;;5069668;28;45946;-64
2023/05/28 08:33:08;;;;;;;15.93;5.30;;;20.50;11.70;;;;;;5064661;27;47960;-64
2023/05/28 08:35:34;;;;;;;12.23;5.67;;;20.40;11.60;;;;;;5062517;28;46390;-65
2023/05/28 08:38:00;;;;;;;13.93;5.27;;;20.60;11.80;;;;;;5067335;28;46350;-64
2023/05/28 08:40:27;;;;;;;19.50;4.70;;;20.90;12.00;;;;;;5064376;28;46356;-64
2023/05/28 08:42:52;;;;;;;10.37;4.77;;;21.00;9.90;;;;;;5063571;27;46446;-65
2023/05/28 08:45:18;;;;;;;12.13;4.50;;;21.00;9.60;;;;;;5063958;28;46340;-63
2023/05/28 08:47:45;;;;;;;13.20;4.20;;;20.90;8.60;;;;;;5063201;28;46350;-64
2023/05/28 08:50:12;;;;;;;9.73;4.10;;;21.00;8.90;;;;;;5061826;28;46492;-64
2023/05/28 08:52:38;;;;;;;12.83;4.90;;;21.10;8.90;;;;;;5067832;28;46401;-64
2023/05/28 08:55:04;;;;;;;12.20;4.73;;;21.10;9.20;;;;;;5055272;28;46439;-63
2023/05/28 08:57:32;;;;;;;12.60;4.30;;;21.00;9.10;;;;;;5066526;28;46433;-65
2023/05/28 09:00:05;;;;;;;14.90;4.50;;;21.10;9.30;;;;;;5064478;28;46417;-65
2023/05/28 09:02:30;;;;;;;9.07;4.30;;;21.10;8.60;;;;;;5058485;28;46403;-63
2023/05/28 09:04:57;;;;;;;19.80;4.60;;;21.00;8.20;;;;;;5065649;28;45946;-63
2023/05/28 09:07:23;;;;;;;12.47;4.40;;;21.00;7.90;;;;;;5063822;28;46686;-62
2023/05/28 09:09:50;;;;;;;12.33;4.03;;;21.10;7.40;;;;;;5060341;27;46583;-66
2023/05/28 09:12:21;;;;;;;17.93;4.53;;;21.10;7.00;;;;;;5060643;28;47129;-63
2023/05/28 09:14:51;;;;;;;8.30;4.70;;;21.00;6.10;;;;;;5064909;28;46482;-62
2023/05/28 09:17:16;;;;;;;10.00;3.90;;;21.00;6.20;;;;;;5064426;28;46490;-64
2023/05/28 09:19:54;;;;;;;14.20;4.23;;;21.10;5.60;;;;;;5062836;27;46459;-64
2023/05/28 09:22:20;;;;;;;11.97;4.10;;;21.20;5.40;;;;;;5064535;28;46319;-63
2023/05/28 09:24:49;;;;;;;10.77;4.50;;;21.10;5.00;;;;;;5062539;28;46497;-63
2023/05/28 09:27:19;;;;;;;10.80;3.80;;;21.30;4.70;;;;;;5060801;28;46866;-64
2023/05/28 09:29:45;;;;;;;9.77;3.83;;;21.30;3.50;;;;;;5063743;28;46486;-64
2023/05/28 09:32:11;;;;;;;11.83;3.97;;;21.40;3.80;;;;;;5061972;28;46473;-64
2023/05/28 09:34:44;;;;;;;9.93;4.60;;;21.40;4.00;;;;;;5067793;28;46525;-69
2023/05/28 09:37:16;;;;;;;15.60;5.30;;;21.60;3.70;;;;;;5074260;28;46388;-69
2023/05/28 09:39:44;;;;;;;15.60;4.53;;;21.50;3.70;;;;;;5072255;28;46745;-66
2023/05/28 09:42:10;;;;;;;11.10;4.00;;;21.70;3.90;;;;;;5068924;27;46821;-69
2023/05/28 09:44:38;;;;;;;17.93;4.33;;;21.90;4.20;;;;;;5062920;28;46528;-68
2023/05/28 09:47:17;;;;;;;15.00;5.27;;;22.00;4.30;;;;;;5065197;28;46466;-68
2023/05/28 09:49:45;;;;;;;9.87;3.93;;;21.90;4.20;;;;;;5071075;28;46535;-68
2023/05/28 09:52:19;;;;;;;12.53;4.93;;;21.80;4.20;;;;;;5065919;28;47137;-67
2023/05/28 09:54:59;;;;;;;10.63;3.93;;;21.60;3.80;;;;;;5068503;28;46431;-68
2023/05/28 09:57:30;;;;;;;14.60;4.20;;;21.70;3.90;;;;;;5067640;28;45763;-68
2023/05/28 09:59:56;;;;;;;8.60;3.67;;;21.70;3.90;;;;;;5066872;28;46640;-69
2023/05/28 10:02:35;;;;;;;11.53;3.77;;;21.70;3.90;;;;;;5063720;28;46469;-68
2023/05/28 10:05:06;;;;;;;14.23;4.43;;;21.80;4.00;;;;;;5068071;28;46471;-67
2023/05/28 10:07:33;;;;;;;14.07;5.13;;;21.90;3.70;;;;;;5065874;28;46408;-66
2023/05/28 10:10:01;;;;;;;9.80;4.63;;;22.00;3.70;;;;;;5064372;28;46412;-67
2023/05/28 10:12:29;;;;;;;12.70;4.47;;;21.90;3.80;;;;;;5064395;27;48565;-67
2023/05/28 10:14:55;;;;;;;10.97;3.97;;;22.10;3.80;;;;;;5066562;28;46491;-66
2023/05/28 10:17:21;;;;;;;13.83;3.37;;;22.00;2.80;;;;;;5066020;28;46737;-66
2023/05/28 10:19:47;;;;;;;14.80;4.03;;;21.60;2.20;;;;;;5069201;28;46647;-65
2023/05/28 10:22:14;;;;;;;9.40;4.17;;;21.50;2.70;;;;;;5064490;28;46440;-67
2023/05/28 10:24:40;;;;;;;10.23;4.03;;;21.60;2.60;;;;;;5068940;27;46479;-66
2023/05/28 10:27:09;;;;;;;11.70;3.80;;;21.80;2.70;;;;;;5070279;28;46436;-68
2023/05/28 10:29:46;;;;;;;12.07;3.90;;;21.90;2.70;;;;;;5061270;28;46485;-67
2023/05/28 10:32:17;;;;;;;9.33;3.90;;;21.80;2.60;;;;;;5068140;27;46411;-67
2023/05/28 10:34:43;;;;;;;11.17;4.07;;;21.90;2.10;;;;;;5065010;28;46759;-66
2023/05/28 10:37:11;;;;;;;7.50;3.53;;;22.00;2.40;;;;;;5066457;27;46421;-65
2023/05/28 10:39:41;;;;;;;7.83;3.90;;;22.10;2.50;;;;;;5065121;28;46589;-67
2023/05/28 10:42:08;;;;;;;9.17;4.10;;;22.20;2.10;;;;;;5067545;28;47005;-68
2023/05/28 10:44:52;;;;;;;9.13;3.60;;;22.30;2.40;;;;;;5065413;28;46406;-67
2023/05/28 10:47:18;;;;;;;10.40;4.50;;;22.30;1.90;;;;;;5072922;27;46409;-66
2023/05/28 10:49:59;;;;;;;9.60;3.83;;;22.20;2.20;;;;;;5067821;28;46562;-68
2023/05/28 10:52:25;;;;;;;10.97;4.00;;;22.20;2.70;;;;;;5062362;27;46624;-67
2023/05/28 10:54:53;;;;;;;12.17;4.10;;;22.10;2.40;;;;;;5068160;27;46491;-67
2023/05/28 10:57:20;;;;;;;16.10;4.60;;;21.90;2.30;;;;;;5069569;28;46476;-67
2023/05/28 11:00:00;;;;;;;12.90;3.57;;;21.80;2.20;;;;;;5065130;27;46625;-68
2023/05/28 11:02:27;;;;;;;10.50;4.03;;;21.90;2.00;;;;;;5065072;28;46424;-67
2023/05/28 11:04:59;;;;;;;10.80;3.97;;;22.10;2.10;;;;;;5064528;28;46628;-67
2023/05/28 11:07:32;;;;;;;15.07;3.90;;;22.30;1.90;;;;;;5064319;28;46366;-68
2023/05/28 11:10:00;;;;;;;9.53;3.90;;;22.40;1.60;;;;;;5062350;28;46469;-67
2023/05/28 11:12:31;;;;;;;11.80;4.10;;;22.40;2.20;;;;;;5062564;28;46465;-67
2023/05/28 11:14:56;;;;;;;10.23;4.10;;;22.50;2.20;;;;;;5067551;28;47485;-66
2023/05/28 11:17:22;;;;;;;8.33;3.50;;;22.40;2.00;;;;;;5068197;28;46370;-67
2023/05/28 11:19:50;;;;;;;14.13;4.20;;;22.50;1.80;;;;;;5066224;28;46492;-67
2023/05/28 11:22:17;;;;;;;9.23;4.10;;;22.50;1.70;;;;;;5063279;28;46601;-68
2023/05/28 11:24:59;;;;;;;13.23;3.80;;;22.60;1.80;;;;;;5066229;28;46413;-67
2023/05/28 11:27:28;;;;;;;7.80;3.57;;;22.70;1.80;;;;;;5063232;28;46524;-66
2023/05/28 11:29:56;;;;;;;11.80;4.50;;;22.50;1.60;;;;;;5063652;28;46534;-66
2023/05/28 11:32:23;;;;;;;8.77;3.60;;;22.60;1.80;;;;;;5063991;28;47293;-66
2023/05/28 11:34:50;;;;;;;8.37;3.87;;;22.50;1.70;;;;;;5066847;28;46383;-66
2023/05/28 11:37:16;;;;;;;12.00;4.40;;;22.30;1.50;;;;;;5064597;28;46025;-67
2023/05/28 11:39:50;;;;;;;8.13;3.77;;;22.30;1.60;;;;;;5067249;27;46434;-66
2023/05/28 11:42:16;;;;;;;12.30;3.90;;;22.30;1.20;;;;;;5068614;28;46707;-66
2023/05/28 11:44:49;;;;;;;8.47;3.87;;;22.40;1.00;;;;;;5059632;28;46526;-66
2023/05/28 11:47:15;;;;;;;10.17;4.17;;;22.50;1.00;;;;;;5066914;28;46587;-66
2023/05/28 11:49:42;;;;;;;9.20;3.90;;;22.60;1.00;;;;;;5069222;28;46495;-67
2023/05/28 11:52:19;;;;;;;11.93;3.53;;;22.40;1.20;;;;;;5068052;28;46065;-66
2023/05/28 11:54:47;;;;;;;12.57;3.90;;;22.30;1.50;;;;;;5063414;28;46416;-66
2023/05/28 11:57:23;;;;;;;14.50;3.87;;;22.30;1.50;;;;;;5064264;28;46294;-67
2023/05/28 11:59:58;;;;;;;10.50;4.37;;;22.50;1.70;;;;;;5067467;28;46417;-66
2023/05/28 12:02:24;;;;;;;10.43;3.83;;;22.60;1.70;;;;;;5065119;27;46507;-67
2023/05/28 12:04:58;;;;;;;9.90;3.70;;;22.50;1.70;;;;;;5066045;28;46847;-66
2023/05/28 12:07:32;;;;;;;10.70;3.67;;;22.40;1.60;;;;;;5063697;28;46394;-65
2023/05/28 12:10:09;;;;;;;9.03;3.90;;;22.50;1.20;;;;;;5070455;28;46539;-68
2023/05/28 12:12:42;;;;;;;14.50;4.10;;;22.50;1.00;;;;;;5068734;27;46922;-67
2023/05/28 12:15:08;;;;;;;13.50;3.77;;;22.40;1.00;;;;;;5063516;28;46452;-67
2023/05/28 12:17:39;;;;;;;8.27;3.60;;;22.50;1.00;;;;;;5066548;28;46396;-66
2023/05/28 12:20:06;;;;;;;9.50;3.57;;;22.70;1.00;;;;;;5067757;28;46432;-65
2023/05/28 12:22:32;;;;;;;12.20;3.80;;;22.80;1.00;;;;;;5065995;28;47509;-67
2023/05/28 12:24:58;;;;;;;9.90;3.80;;;22.60;1.00;;;;;;5064710;28;46341;-67
2023/05/28 12:27:24;;;;;;;9.50;3.83;;;22.40;1.00;;;;;;5066867;28;46351;-67
2023/05/28 12:29:49;;;;;;;7.17;3.57;;;22.40;1.00;;;;;;5069415;28;46574;-68
2023/05/28 12:32:15;;;;;;;11.43;4.00;;;22.70;1.00;;;;;;5063397;28;46947;-67
2023/05/28 12:34:41;;;;;;;8.33;3.70;;;22.90;1.00;;;;;;5062042;28;46436;-68
2023/05/28 12:37:07;;;;;;;13.10;4.00;;;23.10;1.00;;;;;;5064898;28;46436;-67
2023/05/28 12:39:32;;;;;;;14.30;4.27;;;23.10;1.00;;;;;;5065124;28;45969;-67
2023/05/28 12:41:58;;;;;;;14.23;3.93;;;23.00;1.00;;;;;;5064342;27;46433;-68
2023/05/28 12:44:24;;;;;;;8.60;3.93;;;23.00;1.00;;;;;;5065324;28;46412;-68